createdAt,value
2023-02-07T00:01:46.499Z,24.10
2023-02-07T00:04:15.506Z,24.00
2023-02-07T00:06:44.542Z,24.10
2023-02-07T00:09:18.572Z,24.10
2023-02-07T00:11:47.628Z,24.10
2023-02-07T00:14:16.783Z,24.10
2023-02-07T00:16:45.837Z,24.10
2023-02-07T00:19:14.953Z,24.10
2023-02-07T00:21:43.932Z,24.20
2023-02-07T00:24:13.281Z,24.20
2023-02-07T00:26:42.301Z,24.20
2023-02-07T00:29:12.578Z,24.20
2023-02-07T00:31:41.951Z,24.20
2023-02-07T00:34:12.268Z,24.20
2023-02-07T00:36:42.322Z,24.20
2023-02-07T00:39:15.813Z,24.30
2023-02-07T00:41:46.039Z,24.30
2023-02-07T00:44:15.086Z,24.30
2023-02-07T00:46:44.066Z,24.40
2023-02-07T00:49:13.650Z,24.40
2023-02-07T00:51:42.927Z,24.40
2023-02-07T00:54:11.920Z,24.50
2023-02-07T00:56:40.950Z,24.50
2023-02-07T00:59:10.521Z,24.50
2023-02-07T01:01:39.694Z,24.60
2023-02-07T01:04:08.766Z,24.60
2023-02-07T01:06:38.251Z,24.70
2023-02-07T01:09:08.063Z,24.70
2023-02-07T01:11:37.156Z,24.80
2023-02-07T01:14:06.244Z,24.90
2023-02-07T01:16:37.369Z,25.00
2023-02-07T01:19:09.754Z,25.10
2023-02-07T01:21:39.291Z,25.20
2023-02-07T01:24:09.847Z,25.30
2023-02-07T01:26:39.767Z,25.40
2023-02-07T01:29:09.212Z,25.50
2023-02-07T01:31:38.197Z,25.60
2023-02-07T01:34:07.173Z,25.70
2023-02-07T01:36:36.173Z,25.90
2023-02-07T01:39:06.087Z,26.00
2023-02-07T01:41:35.044Z,26.20
2023-02-07T01:44:10.519Z,26.30
2023-02-07T01:46:39.411Z,26.50
2023-02-07T01:49:12.835Z,26.60
2023-02-07T01:51:54.745Z,26.70
2023-02-07T01:54:27.294Z,26.90
2023-02-07T01:57:00.889Z,27.10
2023-02-07T01:59:30.788Z,27.30
2023-02-07T02:02:03.587Z,27.50
2023-02-07T02:04:32.599Z,27.70
2023-02-07T02:07:01.629Z,27.80
2023-02-07T02:09:31.055Z,28.00
2023-02-07T02:12:11.714Z,28.10
2023-02-07T02:15:11.111Z,28.30
2023-02-07T02:17:57.733Z,28.50
2023-02-07T02:20:45.521Z,28.60
2023-02-07T02:23:41.089Z,28.80
2023-02-07T02:26:43.924Z,29.10
2023-02-07T02:29:56.816Z,29.30
2023-02-07T02:32:59.359Z,29.60
2023-02-07T02:36:12.159Z,29.80
2023-02-07T02:39:09.697Z,30.00
2023-02-07T02:41:55.330Z,30.10
2023-02-07T02:44:48.686Z,30.30
2023-02-07T02:47:19.759Z,30.40
2023-02-07T02:49:49.980Z,30.60
2023-02-07T02:52:18.846Z,30.70
2023-02-07T02:54:47.839Z,30.90
2023-02-07T02:57:19.632Z,31.00
2023-02-07T02:59:57.571Z,31.10
2023-02-07T03:02:32.565Z,31.30
2023-02-07T03:05:19.015Z,31.50
2023-02-07T03:07:50.911Z,31.60
2023-02-07T03:10:35.157Z,31.70
2023-02-07T03:13:26.390Z,31.80
2023-02-07T03:16:04.606Z,31.80
2023-02-07T03:18:39.510Z,31.90
2023-02-07T03:21:17.092Z,32.00
2023-02-07T03:23:48.319Z,32.10
2023-02-07T03:26:17.909Z,32.20
2023-02-07T03:28:49.522Z,32.20
2023-02-07T03:31:22.318Z,32.40
2023-02-07T03:33:56.093Z,32.50
2023-02-07T03:36:58.659Z,32.60
2023-02-07T03:39:28.255Z,32.70
2023-02-07T03:42:05.381Z,32.90
2023-02-07T03:44:36.235Z,33.00
2023-02-07T03:47:06.375Z,33.10
2023-02-07T03:49:35.403Z,33.20
2023-02-07T03:52:04.575Z,33.20
2023-02-07T03:54:33.531Z,33.30
2023-02-07T03:57:02.407Z,33.30
2023-02-07T03:59:31.353Z,33.40
2023-02-07T04:02:00.244Z,33.50
2023-02-07T04:04:29.541Z,33.60
2023-02-07T04:06:58.681Z,33.70
2023-02-07T04:09:27.742Z,33.80
2023-02-07T04:11:56.686Z,33.90
2023-02-07T04:14:25.669Z,34.00
2023-02-07T04:16:54.613Z,34.00
2023-02-07T04:19:23.771Z,34.20
2023-02-07T04:21:52.853Z,34.30
2023-02-07T04:24:21.855Z,34.30
2023-02-07T04:26:50.806Z,34.40
2023-02-07T04:29:19.786Z,34.50
2023-02-07T04:31:49.004Z,34.50
2023-02-07T04:34:18.108Z,34.50
2023-02-07T04:36:47.104Z,34.40
2023-02-07T04:39:16.114Z,34.50
2023-02-07T04:41:45.188Z,34.50
2023-02-07T04:44:14.178Z,34.60
2023-02-07T04:46:43.277Z,34.60
2023-02-07T04:49:12.351Z,34.70
2023-02-07T04:51:41.291Z,34.70
2023-02-07T04:54:11.366Z,34.70
2023-02-07T04:56:40.572Z,34.70
2023-02-07T04:59:09.543Z,34.70
2023-02-07T05:01:38.531Z,34.70
2023-02-07T05:04:07.498Z,34.70
2023-02-07T05:06:36.804Z,34.70
2023-02-07T05:09:05.803Z,34.80
2023-02-07T05:11:34.992Z,34.90
2023-02-07T05:14:03.949Z,34.80
2023-02-07T05:16:32.878Z,34.80
2023-02-07T05:19:01.818Z,34.70
2023-02-07T05:21:30.758Z,34.70
2023-02-07T05:23:59.612Z,34.60
2023-02-07T05:26:28.475Z,34.60
2023-02-07T05:28:57.336Z,34.60
2023-02-07T05:31:46.167Z,34.50
2023-02-07T05:34:15.207Z,34.50
2023-02-07T05:36:44.148Z,34.50
2023-02-07T05:39:13.192Z,34.40
2023-02-07T05:41:42.121Z,34.40
2023-02-07T05:44:11.188Z,34.40
2023-02-07T05:46:40.231Z,34.40
2023-02-07T05:49:09.173Z,34.50
2023-02-07T05:51:38.089Z,34.60
2023-02-07T05:54:07.024Z,34.70
2023-02-07T05:56:36.211Z,34.80
2023-02-07T05:59:05.136Z,34.90
2023-02-07T06:01:35.912Z,35.00
2023-02-07T06:04:06.040Z,35.20
2023-02-07T06:06:35.131Z,35.30
2023-02-07T06:09:03.998Z,35.50
2023-02-07T06:11:32.851Z,35.60
2023-02-07T06:14:01.803Z,35.70
2023-02-07T06:16:30.771Z,35.80
2023-02-07T06:18:59.743Z,35.80
2023-02-07T06:21:45.131Z,35.80
2023-02-07T06:24:15.646Z,35.90
2023-02-07T06:26:45.567Z,36.00
2023-02-07T06:29:14.703Z,35.90
2023-02-07T06:31:43.793Z,35.80
2023-02-07T06:34:12.831Z,35.80
2023-02-07T06:36:41.745Z,35.80
2023-02-07T06:39:10.900Z,35.80
2023-02-07T06:41:39.936Z,35.70
2023-02-07T06:44:09.017Z,35.60
2023-02-07T06:46:38.020Z,35.70
2023-02-07T06:49:07.251Z,35.80
2023-02-07T06:51:36.247Z,35.90
2023-02-07T06:54:09.403Z,36.00
2023-02-07T06:56:39.236Z,36.10
2023-02-07T06:59:08.239Z,36.20
2023-02-07T07:01:37.182Z,36.30
2023-02-07T07:04:06.281Z,36.40
2023-02-07T07:06:35.584Z,36.50
2023-02-07T07:09:04.767Z,36.60
2023-02-07T07:11:33.788Z,36.70
2023-02-07T07:14:03.801Z,36.90
2023-02-07T07:16:32.736Z,36.90
2023-02-07T07:19:01.712Z,37.00
2023-02-07T07:21:30.825Z,36.90
2023-02-07T07:23:59.827Z,36.90
2023-02-07T07:26:39.516Z,36.90
2023-02-07T07:29:15.970Z,37.00
2023-02-07T07:31:45.159Z,37.00
2023-02-07T07:34:14.423Z,37.00
2023-02-07T07:36:43.847Z,36.90
2023-02-07T07:39:13.002Z,37.00
2023-02-07T07:41:42.066Z,36.90
2023-02-07T07:44:11.103Z,36.90
2023-02-07T07:46:40.172Z,36.90
2023-02-07T07:49:09.435Z,36.80
2023-02-07T07:51:38.575Z,36.70
2023-02-07T07:54:07.505Z,36.60
2023-02-07T07:56:36.600Z,36.50
2023-02-07T07:59:06.040Z,36.40
2023-02-07T08:01:41.165Z,36.30
2023-02-07T08:04:10.140Z,36.10
2023-02-07T08:06:39.105Z,35.90
2023-02-07T08:09:07.992Z,35.70
2023-02-07T08:11:36.899Z,35.60
2023-02-07T08:14:05.885Z,35.50
2023-02-07T08:16:34.887Z,35.40
2023-02-07T08:19:03.904Z,35.30
2023-02-07T08:21:33.683Z,35.20
2023-02-07T08:24:02.604Z,35.10
2023-02-07T08:26:31.910Z,35.00
2023-02-07T08:29:00.841Z,35.00
2023-02-07T08:31:29.849Z,35.00
2023-02-07T08:33:59.001Z,35.00
2023-02-07T08:36:27.922Z,35.00
2023-02-07T08:38:56.923Z,35.10
2023-02-07T08:41:25.910Z,35.20
2023-02-07T08:43:54.847Z,35.20
2023-02-07T08:46:23.814Z,35.30
2023-02-07T08:48:52.776Z,35.40
2023-02-07T08:51:22.604Z,35.40
2023-02-07T08:53:51.528Z,35.50
2023-02-07T08:56:20.440Z,35.50
2023-02-07T08:58:49.417Z,35.60
2023-02-07T09:01:18.304Z,35.60
2023-02-07T09:03:47.265Z,35.60
2023-02-07T09:06:16.216Z,35.70
2023-02-07T09:08:45.276Z,35.70
2023-02-07T09:11:14.203Z,35.60
2023-02-07T09:13:46.376Z,35.70
2023-02-07T09:16:16.617Z,35.70
2023-02-07T09:18:45.624Z,35.60
2023-02-07T09:21:14.582Z,35.70
2023-02-07T09:23:43.483Z,35.60
2023-02-07T09:26:21.624Z,35.60
2023-02-07T09:28:50.734Z,35.60
2023-02-07T09:31:19.986Z,35.60
2023-02-07T09:33:49.114Z,35.50
2023-02-07T09:36:24.002Z,35.40
2023-02-07T09:38:53.568Z,35.30
2023-02-07T09:41:47.213Z,35.10
2023-02-07T09:44:45.867Z,35.00
2023-02-07T09:47:22.428Z,35.00
2023-02-07T09:50:07.577Z,35.00
2023-02-07T09:52:46.455Z,35.00
2023-02-07T09:55:51.987Z,34.90
2023-02-07T09:58:34.815Z,34.90
2023-02-07T10:01:11.727Z,34.90
2023-02-07T10:04:04.537Z,34.80
2023-02-07T10:06:34.462Z,34.80
2023-02-07T10:09:03.770Z,34.70
2023-02-07T10:11:54.464Z,34.60
2023-02-07T10:14:30.632Z,34.60
2023-02-07T10:17:31.622Z,34.50
2023-02-07T10:20:21.430Z,34.50
2023-02-07T10:23:16.620Z,34.40
2023-02-07T10:26:03.954Z,34.30
2023-02-07T10:28:47.884Z,34.20
2023-02-07T10:31:18.651Z,34.10
2023-02-07T10:34:16.209Z,34.00
2023-02-07T10:36:49.146Z,33.90
2023-02-07T10:39:34.793Z,33.80
2023-02-07T10:42:03.642Z,33.70
2023-02-07T10:44:32.898Z,33.60
2023-02-07T10:47:05.382Z,33.50
2023-02-07T10:49:37.424Z,33.50
2023-02-07T10:52:24.800Z,33.40
2023-02-07T10:54:56.816Z,33.30
2023-02-07T10:57:27.292Z,33.30
2023-02-07T11:00:16.375Z,33.10
2023-02-07T11:02:51.109Z,33.10
2023-02-07T11:05:20.001Z,32.90
2023-02-07T11:08:10.095Z,32.80
2023-02-07T11:10:41.930Z,32.70
2023-02-07T11:13:29.767Z,32.60
2023-02-07T11:16:05.924Z,32.50
2023-02-07T11:18:45.309Z,32.40
2023-02-07T11:21:37.048Z,32.30
2023-02-07T11:24:09.364Z,32.20
2023-02-07T11:26:48.903Z,32.20
2023-02-07T11:29:20.565Z,32.00
2023-02-07T11:31:51.181Z,32.00
2023-02-07T11:34:49.410Z,31.90
2023-02-07T11:38:00.185Z,31.80
2023-02-07T11:40:37.573Z,31.70
2023-02-07T11:43:16.842Z,31.70
2023-02-07T11:45:49.500Z,31.70
2023-02-07T11:48:22.341Z,31.60
2023-02-07T11:50:56.181Z,31.50
2023-02-07T11:53:33.616Z,31.50
2023-02-07T11:56:02.745Z,31.40
2023-02-07T11:58:47.684Z,31.40
2023-02-07T12:01:19.827Z,31.30
2023-02-07T12:04:04.619Z,31.30
2023-02-07T12:06:52.975Z,31.20
2023-02-07T12:09:57.328Z,31.20
2023-02-07T12:12:47.574Z,31.10
2023-02-07T12:15:19.659Z,31.00
2023-02-07T12:17:58.378Z,31.00
2023-02-07T12:20:55.120Z,30.90
2023-02-07T12:23:41.963Z,30.90
2023-02-07T12:26:18.941Z,30.80
2023-02-07T12:29:07.509Z,30.80
2023-02-07T12:32:08.317Z,30.80
2023-02-07T12:35:12.748Z,30.70
2023-02-07T12:37:44.743Z,30.70
2023-02-07T12:40:32.118Z,30.70
2023-02-07T12:43:22.515Z,30.60
2023-02-07T12:45:57.719Z,30.70
2023-02-07T12:48:44.723Z,30.60
2023-02-07T12:51:50.676Z,30.60
2023-02-07T12:54:45.976Z,30.60
2023-02-07T12:57:40.142Z,30.60
2023-02-07T13:00:25.576Z,30.50
2023-02-07T13:03:25.162Z,30.40
2023-02-07T13:06:09.643Z,30.40
2023-02-07T13:08:53.970Z,30.40
2023-02-07T13:12:00.030Z,30.30
2023-02-07T13:14:50.610Z,30.30
2023-02-07T13:17:43.810Z,30.30
2023-02-07T13:20:31.078Z,30.30
2023-02-07T13:23:10.898Z,30.20
2023-02-07T13:25:44.740Z,30.20
2023-02-07T13:28:48.082Z,30.20
2023-02-07T13:31:42.313Z,30.10
2023-02-07T13:34:39.186Z,30.10
2023-02-07T13:37:16.978Z,30.00
2023-02-07T13:39:56.523Z,30.00
2023-02-07T13:42:37.268Z,30.00
2023-02-07T13:45:31.550Z,29.90
2023-02-07T13:48:23.787Z,29.90
2023-02-07T13:51:02.025Z,29.80
2023-02-07T13:54:09.064Z,29.80
2023-02-07T13:56:56.413Z,29.80
2023-02-07T13:59:40.034Z,29.70
2023-02-07T14:02:16.284Z,29.70
2023-02-07T14:05:00.406Z,29.70
2023-02-07T14:07:35.436Z,29.60
2023-02-07T14:10:06.964Z,29.60
2023-02-07T14:12:41.955Z,29.60
2023-02-07T14:15:29.709Z,29.50
2023-02-07T14:18:02.480Z,29.50
2023-02-07T14:20:47.737Z,29.40
2023-02-07T14:23:21.486Z,29.40
2023-02-07T14:25:51.795Z,29.30
2023-02-07T14:28:34.322Z,29.30
2023-02-07T14:31:25.223Z,29.30
2023-02-07T14:34:15.715Z,29.20
2023-02-07T14:36:45.146Z,29.20
2023-02-07T14:39:22.221Z,29.10
2023-02-07T14:41:53.298Z,29.10
2023-02-07T14:44:37.811Z,29.00
2023-02-07T14:47:10.314Z,29.00
2023-02-07T14:49:46.167Z,29.00
2023-02-07T14:52:37.513Z,28.90
2023-02-07T14:55:25.605Z,28.90
2023-02-07T14:58:08.514Z,28.80
2023-02-07T15:00:56.265Z,28.80
2023-02-07T15:03:25.342Z,28.70
2023-02-07T15:06:00.499Z,28.70
2023-02-07T15:08:31.892Z,28.60
2023-02-07T15:11:06.019Z,28.60
2023-02-07T15:13:38.925Z,28.50
2023-02-07T15:16:16.172Z,28.40
2023-02-07T15:19:20.536Z,28.40
2023-02-07T15:21:52.943Z,28.40
2023-02-07T15:24:50.715Z,28.30
2023-02-07T15:27:30.043Z,28.30
2023-02-07T15:30:04.445Z,28.30
2023-02-07T15:32:43.822Z,28.30
2023-02-07T15:35:31.064Z,28.30
2023-02-07T15:38:18.212Z,28.20
2023-02-07T15:40:47.480Z,28.20
2023-02-07T15:43:36.935Z,28.20
2023-02-07T15:46:11.920Z,28.20
2023-02-07T15:49:00.993Z,28.20
2023-02-07T15:51:32.545Z,28.20
2023-02-07T15:54:03.600Z,28.20
2023-02-07T15:56:33.034Z,28.10
2023-02-07T15:59:12.079Z,28.10
2023-02-07T16:01:42.369Z,28.10
2023-02-07T16:04:11.604Z,28.10
2023-02-07T16:06:57.374Z,28.00
2023-02-07T16:10:15.782Z,28.00
2023-02-07T16:12:54.154Z,27.90
2023-02-07T16:15:33.398Z,27.90
2023-02-07T16:18:04.852Z,27.90
2023-02-07T16:20:37.981Z,27.80
2023-02-07T16:23:10.910Z,27.80
2023-02-07T16:25:39.862Z,27.80
2023-02-07T16:28:12.651Z,27.80
2023-02-07T16:30:42.553Z,27.80
2023-02-07T16:33:14.840Z,27.80
2023-02-07T16:35:43.891Z,27.80
2023-02-07T16:38:12.995Z,27.70
2023-02-07T16:40:42.377Z,27.80
2023-02-07T16:43:19.137Z,27.70
2023-02-07T16:45:48.101Z,27.70
2023-02-07T16:48:17.095Z,27.70
2023-02-07T16:50:45.957Z,27.70
2023-02-07T16:53:15.367Z,27.70
2023-02-07T16:55:44.283Z,27.60
2023-02-07T16:58:30.444Z,27.60
2023-02-07T17:00:59.639Z,27.60
2023-02-07T17:03:28.677Z,27.60
2023-02-07T17:05:57.822Z,27.50
2023-02-07T17:08:31.312Z,27.50
2023-02-07T17:11:03.297Z,27.50
2023-02-07T17:13:32.353Z,27.40
2023-02-07T17:16:01.416Z,27.40
2023-02-07T17:18:30.423Z,27.40
2023-02-07T17:20:59.435Z,27.40
2023-02-07T17:23:29.693Z,27.30
2023-02-07T17:25:58.914Z,27.30
2023-02-07T17:28:27.965Z,27.30
2023-02-07T17:30:57.812Z,27.20
2023-02-07T17:33:27.735Z,27.20
2023-02-07T17:35:56.750Z,27.20
2023-02-07T17:38:25.697Z,27.20
2023-02-07T17:40:54.807Z,27.10
2023-02-07T17:43:23.944Z,27.20
2023-02-07T17:45:53.011Z,27.10
2023-02-07T17:48:22.044Z,27.10
2023-02-07T17:50:51.013Z,27.10
2023-02-07T17:53:22.650Z,27.10
2023-02-07T17:55:52.297Z,27.10
2023-02-07T17:58:21.356Z,27.10
2023-02-07T18:00:50.480Z,27.00
2023-02-07T18:03:19.653Z,27.00
2023-02-07T18:05:48.650Z,27.00
2023-02-07T18:08:17.694Z,27.00
2023-02-07T18:10:46.564Z,27.00
2023-02-07T18:13:15.455Z,27.00
2023-02-07T18:15:45.760Z,27.00
2023-02-07T18:18:16.447Z,26.90
2023-02-07T18:20:45.840Z,26.90
2023-02-07T18:23:16.156Z,26.90
2023-02-07T18:25:50.024Z,26.90
2023-02-07T18:28:18.684Z,26.90
2023-02-07T18:30:47.719Z,26.80
2023-02-07T18:33:18.216Z,26.80
2023-02-07T18:35:47.921Z,26.80
2023-02-07T18:38:16.816Z,26.80
2023-02-07T18:40:45.724Z,26.80
2023-02-07T18:43:14.705Z,26.80
2023-02-07T18:45:43.679Z,26.70
2023-02-07T18:48:12.685Z,26.70
2023-02-07T18:50:47.429Z,26.70
2023-02-07T18:53:16.459Z,26.70
2023-02-07T18:55:45.371Z,26.70
2023-02-07T18:58:14.264Z,26.70
2023-02-07T19:00:44.431Z,26.70
2023-02-07T19:03:13.327Z,26.70
2023-02-07T19:05:42.336Z,26.70
2023-02-07T19:08:11.406Z,26.60
2023-02-07T19:10:40.536Z,26.60
2023-02-07T19:13:09.553Z,26.60
2023-02-07T19:15:38.495Z,26.60
2023-02-07T19:18:07.529Z,26.50
2023-02-07T19:20:36.460Z,26.50
2023-02-07T19:23:06.374Z,26.50
2023-02-07T19:25:35.990Z,26.50
2023-02-07T19:28:04.975Z,26.50
2023-02-07T19:30:33.963Z,26.50
2023-02-07T19:33:03.214Z,26.50
2023-02-07T19:35:32.093Z,26.50
2023-02-07T19:38:01.044Z,26.50
2023-02-07T19:40:29.964Z,26.40
2023-02-07T19:42:58.922Z,26.40
2023-02-07T19:45:28.064Z,26.40
2023-02-07T19:47:57.042Z,26.40
2023-02-07T19:50:27.335Z,26.40
2023-02-07T19:52:56.424Z,26.40
2023-02-07T19:55:25.314Z,26.40
2023-02-07T19:57:55.633Z,26.30
2023-02-07T20:00:24.589Z,26.30
2023-02-07T20:02:53.490Z,26.30
2023-02-07T20:05:22.412Z,26.30
2023-02-07T20:07:51.366Z,26.30
2023-02-07T20:10:20.809Z,26.20
2023-02-07T20:12:50.092Z,26.20
2023-02-07T20:15:19.211Z,26.20
2023-02-07T20:17:49.473Z,26.10
2023-02-07T20:20:19.107Z,26.10
2023-02-07T20:22:48.047Z,26.10
2023-02-07T20:25:17.392Z,26.10
2023-02-07T20:27:46.362Z,26.00
2023-02-07T20:30:15.666Z,26.00
2023-02-07T20:32:45.479Z,26.00
2023-02-07T20:35:15.868Z,26.00
2023-02-07T20:37:44.842Z,26.00
2023-02-07T20:40:13.907Z,26.00
2023-02-07T20:42:42.864Z,25.90
2023-02-07T20:45:12.811Z,25.90
2023-02-07T20:47:41.830Z,25.90
2023-02-07T20:50:11.027Z,25.90
2023-02-07T20:52:39.994Z,25.90
2023-02-07T20:55:10.068Z,25.90
2023-02-07T20:57:39.014Z,25.90
2023-02-07T21:00:09.719Z,25.80
2023-02-07T21:02:39.286Z,25.80
2023-02-07T21:05:08.773Z,25.80
2023-02-07T21:07:37.848Z,25.80
2023-02-07T21:10:07.267Z,25.80
2023-02-07T21:12:36.154Z,25.80
2023-02-07T21:15:05.127Z,25.80
2023-02-07T21:17:33.998Z,25.80
2023-02-07T21:20:02.897Z,25.80
2023-02-07T21:22:31.793Z,25.80
2023-02-07T21:25:00.731Z,25.80
2023-02-07T21:27:29.720Z,25.80
2023-02-07T21:29:58.576Z,25.80
2023-02-07T21:32:27.475Z,25.80
2023-02-07T21:34:56.369Z,25.80
2023-02-07T21:37:25.709Z,25.70
2023-02-07T21:39:55.177Z,25.80
2023-02-07T21:42:24.051Z,25.70
2023-02-07T21:44:52.983Z,25.70
2023-02-07T21:47:21.895Z,25.70
2023-02-07T21:49:50.944Z,25.70
2023-02-07T21:52:19.875Z,25.70
2023-02-07T21:54:48.780Z,25.80
2023-02-07T21:57:17.738Z,25.70
2023-02-07T21:59:47.807Z,25.70
2023-02-07T22:02:16.688Z,25.70
2023-02-07T22:04:45.682Z,25.70
2023-02-07T22:07:14.678Z,25.70
2023-02-07T22:09:43.635Z,25.70
2023-02-07T22:12:12.525Z,25.70
2023-02-07T22:14:41.475Z,25.70
2023-02-07T22:17:11.318Z,25.70
2023-02-07T22:19:40.201Z,25.70
2023-02-07T22:22:09.281Z,25.70
2023-02-07T22:24:38.516Z,25.70
2023-02-07T22:27:07.781Z,25.70
2023-02-07T22:29:36.638Z,25.60
2023-02-07T22:32:05.695Z,25.60
2023-02-07T22:34:35.271Z,25.70
2023-02-07T22:37:04.257Z,25.70
2023-02-07T22:39:33.209Z,25.70
2023-02-07T22:42:02.127Z,25.70
2023-02-07T22:44:31.434Z,25.70
2023-02-07T22:47:00.409Z,25.70
2023-02-07T22:49:29.397Z,25.60
2023-02-07T22:51:58.382Z,25.70
2023-02-07T22:54:27.442Z,25.60
2023-02-07T22:56:56.421Z,25.70
2023-02-07T22:59:25.480Z,25.60
2023-02-07T23:01:54.477Z,25.60
2023-02-07T23:04:23.630Z,25.60
2023-02-07T23:06:53.617Z,25.60
2023-02-07T23:09:22.660Z,25.60
2023-02-07T23:11:51.700Z,25.60
2023-02-07T23:14:21.937Z,25.60
2023-02-07T23:16:51.333Z,25.60
2023-02-07T23:19:20.446Z,25.60
2023-02-07T23:21:49.541Z,25.60
2023-02-07T23:24:18.468Z,25.60
2023-02-07T23:26:47.392Z,25.60
2023-02-07T23:29:16.437Z,25.60
2023-02-07T23:31:45.443Z,25.60
2023-02-07T23:34:14.513Z,25.50
2023-02-07T23:36:43.631Z,25.50
2023-02-07T23:39:13.254Z,25.50
2023-02-07T23:41:42.406Z,25.50
2023-02-07T23:44:11.340Z,25.50
2023-02-07T23:46:40.934Z,25.50
2023-02-07T23:49:09.913Z,25.50
2023-02-07T23:51:38.887Z,25.40
2023-02-07T23:54:07.812Z,25.40
2023-02-07T23:56:36.729Z,25.40
2023-02-07T23:59:05.697Z,25.50
